createdAt,value
2023-03-26T00:05:30.875Z,13.70
2023-03-26T00:15:30.791Z,14.20
2023-03-26T00:25:30.809Z,14.30
2023-03-26T00:35:30.848Z,13.50
2023-03-26T00:45:30.879Z,13.40
2023-03-26T00:55:30.842Z,10.90
2023-03-26T01:05:30.853Z,5.10
2023-03-26T01:15:30.867Z,2.40
2023-03-26T01:25:30.835Z,2.40
2023-03-26T01:35:30.941Z,4.20
2023-03-26T01:45:30.953Z,7.20
2023-03-26T01:55:30.899Z,11.00
2023-03-26T02:05:30.859Z,12.70
2023-03-26T02:15:30.830Z,12.20
2023-03-26T02:25:30.893Z,12.90
2023-03-26T02:35:30.969Z,12.90
2023-03-26T02:45:30.952Z,13.40
2023-03-26T02:55:30.840Z,13.10
2023-03-26T03:05:30.907Z,11.60
2023-03-26T03:15:30.861Z,7.00
2023-03-26T03:25:30.864Z,8.50
2023-03-26T03:35:30.931Z,6.60
2023-03-26T03:45:30.893Z,9.30
2023-03-26T03:55:30.915Z,11.20
2023-03-26T04:05:30.911Z,10.00
2023-03-26T04:15:30.900Z,7.40
2023-03-26T04:25:30.910Z,5.20
2023-03-26T04:35:30.885Z,4.20
2023-03-26T04:45:31.209Z,5.30
2023-03-26T04:55:30.880Z,6.20
2023-03-26T05:05:30.902Z,4.20
2023-03-26T05:15:30.927Z,4.70
2023-03-26T05:25:30.997Z,3.00
2023-03-26T05:35:30.932Z,7.40
2023-03-26T05:45:30.924Z,6.70
2023-03-26T05:55:31.168Z,3.60
2023-03-26T06:05:31.007Z,1.30
2023-03-26T06:15:31.042Z,0.90
2023-03-26T06:25:30.939Z,1.20
2023-03-26T06:35:31.003Z,0.90
2023-03-26T06:45:30.918Z,0.80
2023-03-26T06:55:30.970Z,1.00
2023-03-26T07:05:30.944Z,1.00
2023-03-26T07:15:30.966Z,1.10
2023-03-26T07:25:31.042Z,0.90
2023-03-26T07:35:31.030Z,1.20
2023-03-26T07:45:31.094Z,1.10
2023-03-26T07:55:31.040Z,5.50
2023-03-26T08:05:30.989Z,2.70
2023-03-26T08:25:30.969Z,1.30
2023-03-26T08:35:31.146Z,1.90
2023-03-26T08:45:31.029Z,4.50
2023-03-26T08:55:30.961Z,1.90
2023-03-26T09:05:31.007Z,5.00
2023-03-26T09:15:30.970Z,1.80
2023-03-26T09:25:31.014Z,1.00
2023-03-26T09:35:31.025Z,1.10
2023-03-26T09:45:31.170Z,1.80
2023-03-26T09:55:31.090Z,1.30
2023-03-26T10:05:31.000Z,1.10
2023-03-26T10:15:31.018Z,1.60
2023-03-26T10:25:31.031Z,1.80
2023-03-26T10:35:31.059Z,1.20
2023-03-26T10:45:31.057Z,1.40
2023-03-26T10:55:31.041Z,1.80
2023-03-26T11:05:31.103Z,1.30
2023-03-26T11:15:31.103Z,1.50
2023-03-26T11:25:31.053Z,1.00
2023-03-26T11:35:39.878Z,1.30
2023-03-26T11:45:31.086Z,1.30
2023-03-26T11:55:31.130Z,1.50
2023-03-26T12:05:31.063Z,1.70
2023-03-26T12:15:31.082Z,1.20
2023-03-26T12:25:31.075Z,1.70
2023-03-26T12:35:31.156Z,1.90
2023-03-26T12:45:31.072Z,1.40
2023-03-26T12:55:31.067Z,1.10
2023-03-26T13:05:31.075Z,0.80
2023-03-26T13:15:31.075Z,1.20
2023-03-26T13:25:31.092Z,1.40
2023-03-26T13:35:31.466Z,1.00
2023-03-26T13:45:31.086Z,0.90
2023-03-26T14:05:31.109Z,1.20
2023-03-26T14:15:31.105Z,1.30
2023-03-26T14:25:31.121Z,1.30
2023-03-26T14:35:31.143Z,1.30
2023-03-26T14:45:31.121Z,3.00
2023-03-26T14:55:31.131Z,1.30
2023-03-26T15:05:31.118Z,1.40
2023-03-26T15:15:31.145Z,1.20
2023-03-26T15:25:31.164Z,1.10
2023-03-26T15:35:31.152Z,1.60
2023-03-26T15:45:31.135Z,1.30
2023-03-26T15:55:31.155Z,1.80
2023-03-26T16:05:31.241Z,2.00
2023-03-26T16:15:31.165Z,2.20
2023-03-26T16:25:31.180Z,3.90
2023-03-26T16:35:31.187Z,3.10
2023-03-26T16:45:31.170Z,1.80
2023-03-26T16:55:31.166Z,2.00
2023-03-26T17:05:31.164Z,1.60
2023-03-26T17:15:31.485Z,1.90
2023-03-26T17:25:31.271Z,1.90
2023-03-26T17:35:31.201Z,1.80
2023-03-26T17:45:31.210Z,2.00
2023-03-26T17:55:31.377Z,1.80
2023-03-26T18:05:31.207Z,1.80
2023-03-26T18:15:31.190Z,1.70
2023-03-26T18:25:31.204Z,2.00
2023-03-26T18:35:31.224Z,2.00
2023-03-26T18:45:31.226Z,3.50
2023-03-26T18:55:31.221Z,7.00
2023-03-26T19:05:31.199Z,5.50
2023-03-26T19:15:31.313Z,7.40
2023-03-26T19:25:31.218Z,9.60
2023-03-26T19:35:31.228Z,8.90
2023-03-26T19:45:31.237Z,17.50
2023-03-26T19:55:31.333Z,9.90
2023-03-26T20:05:31.332Z,11.10
2023-03-26T20:15:31.228Z,12.30
2023-03-26T20:25:31.499Z,10.30
2023-03-26T20:35:35.886Z,8.80
2023-03-26T20:45:31.310Z,6.80
2023-03-26T20:55:31.252Z,5.10
2023-03-26T21:05:31.274Z,5.60
2023-03-26T21:15:31.296Z,3.40
2023-03-26T21:25:31.251Z,3.40
2023-03-26T21:35:31.392Z,2.60
2023-03-26T21:45:31.444Z,2.10
2023-03-26T21:55:31.261Z,1.90
2023-03-26T22:05:31.280Z,2.00
2023-03-26T22:15:31.482Z,2.40
2023-03-26T22:25:31.279Z,2.70
2023-03-26T22:35:31.331Z,2.90
2023-03-26T22:45:31.311Z,12.80
2023-03-26T22:55:31.294Z,5.30
2023-03-26T23:05:31.305Z,6.80
2023-03-26T23:15:31.410Z,12.70
2023-03-26T23:25:31.317Z,8.40
2023-03-26T23:35:31.329Z,10.00
2023-03-26T23:45:31.638Z,10.50
2023-03-26T23:55:31.352Z,10.00
